createdAt,value
2022-08-08T00:00:56.089Z,100235.59
2022-08-08T00:02:03.734Z,100211.22
2022-08-08T00:03:32.312Z,100239.31
2022-08-08T00:04:59.474Z,100237.78
2022-08-08T00:06:12.845Z,100241.25
2022-08-08T00:07:29.019Z,100238.63
2022-08-08T00:08:53.203Z,100238.25
2022-08-08T00:10:13.530Z,100234.28
2022-08-08T00:11:47.049Z,100247.63
2022-08-08T00:13:00.480Z,100236.47
2022-08-08T00:14:17.719Z,100240.13
2022-08-08T00:15:56.044Z,100237.88
2022-08-08T00:17:02.496Z,100237.34
2022-08-08T00:18:23.535Z,100228.00
2022-08-08T00:19:35.336Z,100245.38
2022-08-08T00:20:58.542Z,100237.69
2022-08-08T00:22:32.357Z,100233.41
2022-08-08T00:23:57.920Z,100187.16
2022-08-08T00:25:08.485Z,100205.03
2022-08-08T00:26:26.169Z,100212.31
2022-08-08T00:27:32.902Z,100206.41
2022-08-08T00:28:44.262Z,100224.31
2022-08-08T00:30:18.319Z,100236.28
2022-08-08T00:32:20.809Z,100266.31
2022-08-08T00:32:53.279Z,100232.31
2022-08-08T00:34:37.079Z,100238.84
2022-08-08T00:36:03.366Z,100248.28
2022-08-08T00:37:47.461Z,100261.66
2022-08-08T00:41:07.177Z,100203.84
2022-08-08T00:41:11.219Z,100254.94
2022-08-08T00:42:08.996Z,100236.56
2022-08-08T00:43:56.242Z,100223.25
2022-08-08T00:45:32.174Z,100219.28
2022-08-08T00:46:56.781Z,100261.78
2022-08-08T00:48:33.893Z,100264.19
2022-08-08T00:49:58.400Z,100258.84
2022-08-08T00:51:42.227Z,100257.16
2022-08-08T00:52:51.912Z,100204.53
2022-08-08T00:54:13.401Z,100266.13
2022-08-08T00:55:54.206Z,100271.44
2022-08-08T00:57:38.900Z,100264.63
2022-08-08T00:59:43.814Z,100247.03
2022-08-08T01:01:12.566Z,100248.84
2022-08-08T01:03:58.583Z,100241.09
2022-08-08T01:04:20.067Z,100257.97
2022-08-08T01:05:59.299Z,100257.97
2022-08-08T01:07:56.599Z,100257.28
2022-08-08T01:09:01.053Z,100260.81
2022-08-08T01:10:34.360Z,100239.31
2022-08-08T01:12:03.853Z,100265.94
2022-08-08T01:13:43.459Z,100264.22
2022-08-08T01:15:07.436Z,100261.44
2022-08-08T01:16:28.056Z,100257.88
2022-08-08T01:18:02.337Z,100250.72
2022-08-08T01:19:25.510Z,100263.50
2022-08-08T01:20:56.114Z,100267.34
2022-08-08T01:22:34.909Z,100262.72
2022-08-08T01:24:13.859Z,100252.03
2022-08-08T01:25:40.401Z,100266.38
2022-08-08T01:27:10.624Z,100262.28
2022-08-08T01:28:43.310Z,100267.53
2022-08-08T01:30:27.640Z,100266.50
2022-08-08T01:32:17.366Z,100259.47
2022-08-08T01:33:43.146Z,100264.91
2022-08-08T01:35:33.195Z,100261.56
2022-08-08T01:36:52.162Z,100268.75
2022-08-08T01:38:13.018Z,100259.47
2022-08-08T01:39:24.143Z,100277.31
2022-08-08T01:40:41.529Z,100264.31
2022-08-08T01:42:10.018Z,100260.94
2022-08-08T01:43:46.547Z,100261.13
2022-08-08T01:45:22.736Z,100263.97
2022-08-08T01:46:38.851Z,100258.13
2022-08-08T01:48:23.260Z,100255.66
2022-08-08T01:50:10.127Z,100260.50
2022-08-08T01:52:43.513Z,100215.56
2022-08-08T01:55:16.481Z,100256.66
2022-08-08T01:55:16.719Z,100256.34
2022-08-08T01:56:34.395Z,100247.66
2022-08-08T01:58:19.039Z,100259.28
2022-08-08T02:00:01.823Z,100253.34
2022-08-08T02:01:24.257Z,100256.13
2022-08-08T02:02:56.974Z,100260.41
2022-08-08T02:04:03.349Z,100250.06
2022-08-08T02:05:56.618Z,100258.00
2022-08-08T02:07:06.322Z,100209.81
2022-08-08T02:08:59.443Z,100248.16
2022-08-08T02:10:11.465Z,100261.22
2022-08-08T02:12:00.062Z,100262.19
2022-08-08T02:13:10.873Z,100232.47
2022-08-08T02:14:59.634Z,100252.88
2022-08-08T02:16:39.390Z,100260.72
2022-08-08T02:17:50.464Z,100261.72
2022-08-08T02:19:41.509Z,100262.63
2022-08-08T02:21:25.693Z,100264.59
2022-08-08T02:22:54.848Z,100262.63
2022-08-08T02:24:23.654Z,100251.25
2022-08-08T02:25:46.912Z,100272.53
2022-08-08T02:26:57.996Z,100272.81
2022-08-08T02:28:13.255Z,100264.75
2022-08-08T02:29:26.205Z,100272.38
2022-08-08T02:31:43.239Z,100226.81
2022-08-08T02:32:47.114Z,100271.09
2022-08-08T02:34:09.444Z,100271.09
2022-08-08T02:35:28.287Z,100262.56
2022-08-08T02:36:45.790Z,100232.06
2022-08-08T02:38:09.060Z,100257.53
2022-08-08T02:39:41.026Z,100224.38
2022-08-08T02:41:03.405Z,100246.72
2022-08-08T02:42:41.709Z,100257.03
2022-08-08T02:44:35.201Z,100261.53
2022-08-08T02:45:57.449Z,100249.47
2022-08-08T02:47:17.841Z,100262.53
2022-08-08T02:48:26.109Z,100260.81
2022-08-08T02:49:48.241Z,100264.31
2022-08-08T02:51:46.507Z,100266.06
2022-08-08T02:53:07.768Z,100275.59
2022-08-08T02:54:52.644Z,100227.84
2022-08-08T02:56:19.999Z,100269.75
2022-08-08T02:57:50.702Z,100269.03
2022-08-08T02:59:37.304Z,100273.41
2022-08-08T03:00:55.425Z,100274.53
2022-08-08T03:02:10.023Z,100271.97
2022-08-08T03:05:03.122Z,100270.16
2022-08-08T03:05:26.708Z,100265.63
2022-08-08T03:07:06.978Z,100271.72
2022-08-08T03:08:27.741Z,100269.09
2022-08-08T03:09:43.547Z,100259.13
2022-08-08T03:11:37.731Z,100271.78
2022-08-08T03:13:07.330Z,100268.75
2022-08-08T03:15:58.739Z,100273.69
2022-08-08T03:16:36.024Z,100270.47
2022-08-08T03:18:06.538Z,100280.88
2022-08-08T03:19:34.268Z,100240.84
2022-08-08T03:20:51.903Z,100270.66
2022-08-08T03:21:58.182Z,100268.16
2022-08-08T03:23:04.625Z,100252.94
2022-08-08T03:24:06.782Z,100271.03
2022-08-08T03:25:17.803Z,100289.09
2022-08-08T03:26:30.767Z,100228.06
2022-08-08T03:27:35.876Z,100270.06
2022-08-08T03:28:51.165Z,100245.16
2022-08-08T03:30:04.119Z,100253.31
2022-08-08T03:31:27.917Z,100237.97
2022-08-08T03:33:03.854Z,100265.25
2022-08-08T03:34:14.137Z,100247.00
2022-08-08T03:35:16.404Z,100163.72
2022-08-08T03:36:20.031Z,100270.69
2022-08-08T03:38:53.504Z,100265.81
2022-08-08T03:39:07.549Z,100275.22
2022-08-08T03:40:30.607Z,100197.44
2022-08-08T03:42:27.198Z,100273.50
2022-08-08T03:42:56.803Z,100243.91
2022-08-08T03:43:59.913Z,100267.31
2022-08-08T03:45:02.232Z,100138.28
2022-08-08T03:46:25.305Z,100260.25
2022-08-08T03:47:45.215Z,100249.84
2022-08-08T03:49:30.150Z,100250.25
2022-08-08T03:50:26.142Z,100280.03
2022-08-08T03:51:50.990Z,100258.91
2022-08-08T03:52:53.056Z,100271.63
2022-08-08T03:53:56.832Z,100270.03
2022-08-08T03:55:10.334Z,100195.75
2022-08-08T03:56:32.228Z,100211.34
2022-08-08T03:58:32.863Z,100286.88
2022-08-08T03:58:56.973Z,100233.75
2022-08-08T04:00:07.930Z,100257.75
2022-08-08T04:01:24.743Z,100195.53
2022-08-08T04:02:33.330Z,100282.41
2022-08-08T04:03:56.966Z,100293.31
2022-08-08T04:05:10.721Z,100291.44
2022-08-08T04:06:12.666Z,100276.78
2022-08-08T04:07:16.423Z,100265.31
2022-08-08T04:08:32.917Z,100292.09
2022-08-08T04:10:00.105Z,100276.28
2022-08-08T04:10:59.941Z,100233.69
2022-08-08T04:12:02.192Z,100279.88
2022-08-08T04:13:17.383Z,100298.47
2022-08-08T04:14:34.895Z,100255.63
2022-08-08T04:15:38.648Z,100297.78
2022-08-08T04:16:41.568Z,100219.75
2022-08-08T04:17:59.138Z,100255.44
2022-08-08T04:19:01.694Z,100289.13
2022-08-08T04:20:04.878Z,100319.31
2022-08-08T04:21:07.061Z,100256.19
2022-08-08T04:22:10.383Z,100250.88
2022-08-08T04:23:15.575Z,100306.91
2022-08-08T04:24:28.265Z,100262.31
2022-08-08T04:25:33.033Z,100282.16
2022-08-08T04:26:57.375Z,100268.81
2022-08-08T04:28:34.950Z,100274.00
2022-08-08T04:29:22.171Z,100272.19
2022-08-08T04:30:24.917Z,100277.63
2022-08-08T04:31:57.223Z,100291.44
2022-08-08T04:32:50.573Z,100320.56
2022-08-08T04:33:52.750Z,100341.28
2022-08-08T04:34:58.236Z,100310.75
2022-08-08T04:36:00.357Z,100318.84
2022-08-08T04:37:03.953Z,100285.47
2022-08-08T04:38:06.332Z,100288.13
2022-08-08T04:40:04.318Z,100293.16
2022-08-08T04:40:33.023Z,100313.59
2022-08-08T04:41:36.919Z,100315.06
2022-08-08T04:42:56.273Z,100313.38
2022-08-08T04:43:59.296Z,100325.31
2022-08-08T04:45:01.132Z,100338.09
2022-08-08T04:46:02.775Z,100209.03
2022-08-08T04:47:05.560Z,100339.56
2022-08-08T04:48:15.045Z,100342.53
2022-08-08T04:49:16.978Z,100329.34
2022-08-08T04:50:25.319Z,100300.38
2022-08-08T04:51:55.113Z,100309.00
2022-08-08T04:53:00.710Z,100338.66
2022-08-08T04:54:40.110Z,100279.72
2022-08-08T04:55:37.563Z,100314.75
2022-08-08T04:56:49.685Z,100220.03
2022-08-08T04:57:51.349Z,100315.03
2022-08-08T04:58:53.390Z,100314.47
2022-08-08T04:59:55.635Z,100310.59
2022-08-08T05:01:08.978Z,100336.91
2022-08-08T05:02:13.590Z,100311.34
2022-08-08T05:03:19.139Z,100334.38
2022-08-08T05:04:37.132Z,100315.31
2022-08-08T05:05:44.808Z,100245.41
2022-08-08T05:06:50.591Z,100369.00
2022-08-08T05:07:54.575Z,100341.19
2022-08-08T05:09:02.910Z,100320.59
2022-08-08T05:10:07.921Z,100341.19
2022-08-08T05:11:22.547Z,100346.91
2022-08-08T05:12:36.669Z,100314.19
2022-08-08T05:13:58.126Z,100332.91
2022-08-08T05:15:05.291Z,100280.88
2022-08-08T05:16:48.515Z,100358.72
2022-08-08T05:17:53.914Z,100323.59
2022-08-08T05:18:51.276Z,100346.78
2022-08-08T05:20:10.795Z,100295.13
2022-08-08T05:21:15.144Z,100345.22
2022-08-08T05:22:21.714Z,100362.53
2022-08-08T05:23:24.101Z,100256.44
2022-08-08T05:24:26.696Z,100362.22
2022-08-08T05:25:28.406Z,100338.50
2022-08-08T05:26:46.291Z,100365.56
2022-08-08T05:27:50.438Z,100340.84
2022-08-08T05:29:04.834Z,100314.97
2022-08-08T05:30:11.077Z,100366.72
2022-08-08T05:32:02.324Z,100332.00
2022-08-08T05:32:36.578Z,100304.41
2022-08-08T05:33:39.414Z,100258.00
2022-08-08T05:34:53.409Z,100325.75
2022-08-08T05:36:00.981Z,100358.53
2022-08-08T05:37:07.607Z,100362.44
2022-08-08T05:38:30.222Z,100330.44
2022-08-08T05:39:34.958Z,100240.13
2022-08-08T05:40:41.812Z,100366.78
2022-08-08T05:41:54.721Z,100312.78
2022-08-08T05:43:38.643Z,100371.00
2022-08-08T05:44:31.834Z,100360.09
2022-08-08T05:45:42.930Z,100373.75
2022-08-08T05:47:03.073Z,100366.66
2022-08-08T05:48:08.665Z,100343.06
2022-08-08T05:49:11.678Z,100269.56
2022-08-08T05:50:13.452Z,100363.44
2022-08-08T05:51:18.327Z,100319.00
2022-08-08T05:52:20.536Z,100299.63
2022-08-08T05:54:25.911Z,100393.16
2022-08-08T05:55:03.179Z,100384.47
2022-08-08T05:56:14.641Z,100362.91
2022-08-08T05:57:59.573Z,100365.19
2022-08-08T05:58:54.055Z,100327.94
2022-08-08T06:00:25.170Z,100291.16
2022-08-08T06:01:56.318Z,100338.56
2022-08-08T06:03:08.174Z,100339.84
2022-08-08T06:04:14.044Z,100313.47
2022-08-08T06:05:35.004Z,100358.13
2022-08-08T06:06:42.432Z,100361.81
2022-08-08T06:07:50.934Z,100368.94
2022-08-08T06:09:00.390Z,100366.03
2022-08-08T06:10:24.703Z,100373.31
2022-08-08T06:11:30.674Z,100385.16
2022-08-08T06:12:33.996Z,100368.78
2022-08-08T06:13:47.495Z,100321.22
2022-08-08T06:14:49.650Z,100379.75
2022-08-08T06:15:54.903Z,100382.88
2022-08-08T06:17:01.001Z,100374.66
2022-08-08T06:18:20.612Z,100377.50
2022-08-08T06:19:25.928Z,100373.00
2022-08-08T06:20:29.791Z,100395.16
2022-08-08T06:21:33.232Z,100385.69
2022-08-08T06:22:50.956Z,100390.09
2022-08-08T06:24:03.356Z,100386.69
2022-08-08T06:25:07.740Z,100389.63
2022-08-08T06:26:43.941Z,100372.94
2022-08-08T06:27:55.181Z,100384.50
2022-08-08T06:29:26.261Z,100389.75
2022-08-08T06:30:30.370Z,100366.91
2022-08-08T06:32:09.514Z,100395.22
2022-08-08T06:33:01.362Z,100388.44
2022-08-08T06:34:25.897Z,100383.44
2022-08-08T06:36:07.522Z,100345.03
2022-08-08T06:36:55.493Z,100367.00
2022-08-08T06:38:02.108Z,100384.63
2022-08-08T06:39:07.008Z,100388.44
2022-08-08T06:40:16.389Z,100385.59
2022-08-08T06:41:20.064Z,100390.94
2022-08-08T06:42:24.116Z,100379.38
2022-08-08T06:43:36.025Z,100395.97
2022-08-08T06:44:44.460Z,100382.63
2022-08-08T06:45:48.261Z,100398.75
2022-08-08T06:46:50.142Z,100327.56
2022-08-08T06:48:01.175Z,100362.91
2022-08-08T06:49:04.483Z,100392.84
2022-08-08T06:50:08.628Z,100346.97
2022-08-08T06:51:16.049Z,100396.16
2022-08-08T06:52:18.267Z,100378.38
2022-08-08T06:53:21.034Z,100408.41
2022-08-08T06:54:23.567Z,100393.53
2022-08-08T06:55:27.505Z,100401.31
2022-08-08T06:56:31.892Z,100400.56
2022-08-08T06:57:54.714Z,100391.81
2022-08-08T06:58:57.265Z,100398.25
2022-08-08T07:00:10.588Z,100381.78
2022-08-08T07:02:17.025Z,100382.97
2022-08-08T07:02:46.000Z,100407.91
2022-08-08T07:04:36.881Z,100398.47
2022-08-08T07:05:29.846Z,100405.97
2022-08-08T07:06:33.847Z,100383.38
2022-08-08T07:07:57.228Z,100397.34
2022-08-08T07:09:08.118Z,100360.00
2022-08-08T07:10:21.168Z,100391.31
2022-08-08T07:11:28.622Z,100385.63
2022-08-08T07:12:48.027Z,100405.25
2022-08-08T07:14:00.932Z,100398.91
2022-08-08T07:15:15.486Z,100382.84
2022-08-08T07:17:03.130Z,100383.16
2022-08-08T07:18:36.217Z,100365.72
2022-08-08T07:19:51.404Z,100403.06
2022-08-08T07:21:05.229Z,100405.78
2022-08-08T07:22:32.872Z,100394.84
2022-08-08T07:23:57.650Z,100400.66
2022-08-08T07:25:03.977Z,100401.53
2022-08-08T07:26:09.293Z,100404.34
2022-08-08T07:27:16.406Z,100406.25
2022-08-08T07:28:24.194Z,100397.78
2022-08-08T07:29:59.835Z,100399.25
2022-08-08T07:30:59.031Z,100381.72
2022-08-08T07:32:01.862Z,100347.41
2022-08-08T07:33:04.776Z,100395.16
2022-08-08T07:34:08.764Z,100329.53
2022-08-08T07:35:12.069Z,100376.94
2022-08-08T07:36:16.937Z,100392.53
2022-08-08T07:37:23.243Z,100408.84
2022-08-08T07:38:25.798Z,100370.91
2022-08-08T07:39:45.809Z,100399.03
2022-08-08T07:40:59.129Z,100399.66
2022-08-08T07:42:12.562Z,100382.69
2022-08-08T07:43:15.650Z,100381.19
2022-08-08T07:44:37.457Z,100355.81
2022-08-08T07:46:04.956Z,100403.88
2022-08-08T07:47:05.210Z,100350.81
2022-08-08T07:48:06.950Z,100395.94
2022-08-08T07:49:13.582Z,100398.38
2022-08-08T07:50:16.579Z,100409.94
2022-08-08T07:51:45.116Z,100381.44
2022-08-08T07:52:51.836Z,100389.78
2022-08-08T07:54:08.922Z,100379.78
2022-08-08T07:55:19.118Z,100399.44
2022-08-08T07:56:36.864Z,100377.97
2022-08-08T07:58:01.924Z,100390.16
2022-08-08T07:59:11.644Z,100399.59
2022-08-08T08:00:17.348Z,100412.28
2022-08-08T08:01:27.038Z,100391.53
2022-08-08T08:03:13.869Z,100379.00
2022-08-08T08:04:29.267Z,100413.00
2022-08-08T08:05:40.180Z,100414.22
2022-08-08T08:06:43.715Z,100410.69
2022-08-08T08:07:56.797Z,100340.44
2022-08-08T08:09:19.513Z,100394.84
2022-08-08T08:10:30.732Z,100407.31
2022-08-08T08:11:51.395Z,100413.59
2022-08-08T08:13:20.491Z,100413.56
2022-08-08T08:14:50.972Z,100423.00
2022-08-08T08:16:00.728Z,100388.22
2022-08-08T08:17:02.685Z,100389.41
2022-08-08T08:18:06.510Z,100324.44
2022-08-08T08:19:18.034Z,100407.25
2022-08-08T08:20:29.900Z,100399.47
2022-08-08T08:21:57.302Z,100401.50
2022-08-08T08:23:00.490Z,100385.22
2022-08-08T08:24:03.058Z,100416.31
2022-08-08T08:25:08.050Z,100400.38
2022-08-08T08:26:11.275Z,100355.16
2022-08-08T08:27:12.992Z,100396.53
2022-08-08T08:28:21.420Z,100391.03
2022-08-08T08:29:28.545Z,100419.13
2022-08-08T08:30:30.306Z,100374.34
2022-08-08T08:31:41.491Z,100411.03
2022-08-08T08:32:51.571Z,100410.41
2022-08-08T08:33:53.993Z,100390.78
2022-08-08T08:34:55.631Z,100421.31
2022-08-08T08:36:20.499Z,100302.34
2022-08-08T08:37:30.593Z,100386.06
2022-08-08T08:38:32.668Z,100365.31
2022-08-08T08:40:00.038Z,100390.19
2022-08-08T08:41:01.200Z,100368.88
2022-08-08T08:42:07.837Z,100386.38
2022-08-08T08:43:16.758Z,100404.44
2022-08-08T08:44:19.497Z,100317.19
2022-08-08T08:45:23.229Z,100382.47
2022-08-08T08:46:27.383Z,100354.06
2022-08-08T08:47:33.735Z,100377.78
2022-08-08T08:48:49.420Z,100407.59
2022-08-08T08:49:51.452Z,100386.75
2022-08-08T08:50:54.512Z,100400.47
2022-08-08T08:52:02.089Z,100403.69
2022-08-08T08:53:28.305Z,100384.38
2022-08-08T08:54:34.592Z,100378.94
2022-08-08T08:55:39.453Z,100399.50
2022-08-08T08:56:41.762Z,100381.28
2022-08-08T08:57:51.415Z,100389.16
2022-08-08T08:58:55.948Z,100341.44
2022-08-08T09:00:05.557Z,100356.22
2022-08-08T09:01:15.955Z,100399.72
2022-08-08T09:02:21.991Z,100393.78
2022-08-08T09:03:45.593Z,100315.28
2022-08-08T09:04:50.234Z,100384.06
2022-08-08T09:05:56.252Z,100398.44
2022-08-08T09:06:59.361Z,100361.19
2022-08-08T09:08:18.471Z,100373.50
2022-08-08T09:09:40.201Z,100368.47
2022-08-08T09:10:50.933Z,100373.31
2022-08-08T09:12:06.185Z,100395.31
2022-08-08T09:13:10.509Z,100390.75
2022-08-08T09:14:14.454Z,100360.66
2022-08-08T09:15:37.578Z,100397.41
2022-08-08T09:16:38.898Z,100381.53
2022-08-08T09:17:55.728Z,100351.84
2022-08-08T09:18:58.166Z,100369.59
2022-08-08T09:21:56.137Z,100366.88
2022-08-08T09:22:01.007Z,100354.75
2022-08-08T09:22:48.019Z,100371.44
2022-08-08T09:23:50.038Z,100342.84
2022-08-08T09:24:54.133Z,100374.38
2022-08-08T09:26:05.841Z,100374.81
2022-08-08T09:27:09.236Z,100360.03
2022-08-08T09:28:37.698Z,100334.84
2022-08-08T09:30:09.862Z,100371.63
2022-08-08T09:31:16.272Z,100340.91
2022-08-08T09:32:37.223Z,100316.47
2022-08-08T09:34:15.231Z,100351.75
2022-08-08T09:35:15.878Z,100378.72
2022-08-08T09:36:22.672Z,100355.34
2022-08-08T09:37:58.206Z,100335.66
2022-08-08T09:38:56.241Z,100352.97
2022-08-08T09:40:11.396Z,100358.00
2022-08-08T09:41:18.085Z,100332.31
2022-08-08T09:42:25.979Z,100355.41
2022-08-08T09:43:40.623Z,100348.09
2022-08-08T09:44:58.688Z,100348.59
2022-08-08T09:46:11.282Z,100314.94
2022-08-08T09:48:02.096Z,100338.53
2022-08-08T09:48:50.211Z,100311.13
2022-08-08T09:49:52.055Z,100354.72
2022-08-08T09:50:57.006Z,100357.53
2022-08-08T09:52:06.698Z,100330.47
2022-08-08T09:53:31.819Z,100354.06
2022-08-08T09:54:45.110Z,100345.03
2022-08-08T09:56:03.057Z,100340.00
2022-08-08T09:57:16.580Z,100321.41
2022-08-08T09:58:27.664Z,100338.91
2022-08-08T10:00:02.428Z,100334.25
2022-08-08T10:01:15.565Z,100334.13
2022-08-08T10:02:36.417Z,100367.38
2022-08-08T10:03:40.384Z,100341.94
2022-08-08T10:04:47.881Z,100343.72
2022-08-08T10:05:50.179Z,100320.81
2022-08-08T10:06:53.912Z,100334.59
2022-08-08T10:08:00.099Z,100339.75
2022-08-08T10:09:02.945Z,100316.06
2022-08-08T10:10:07.005Z,100333.56
2022-08-08T10:11:12.001Z,100312.97
2022-08-08T10:12:54.218Z,100341.72
2022-08-08T10:14:06.129Z,100340.22
2022-08-08T10:15:18.102Z,100336.47
2022-08-08T10:16:21.632Z,100338.78
2022-08-08T10:18:06.233Z,100326.88
2022-08-08T10:19:03.447Z,100321.13
2022-08-08T10:20:05.575Z,100317.38
2022-08-08T10:21:23.004Z,100320.34
2022-08-08T10:22:30.014Z,100342.69
2022-08-08T10:23:42.066Z,100341.88
2022-08-08T10:24:48.691Z,100333.44
2022-08-08T10:25:56.948Z,100337.84
2022-08-08T10:27:04.773Z,100288.97
2022-08-08T10:28:07.182Z,100324.47
2022-08-08T10:29:57.053Z,100318.06
2022-08-08T10:31:46.474Z,100339.84
2022-08-08T10:32:51.287Z,100299.16
2022-08-08T10:34:19.981Z,100330.91
2022-08-08T10:36:06.555Z,100289.78
2022-08-08T10:36:41.698Z,100321.19
2022-08-08T10:37:53.784Z,100295.50
2022-08-08T10:38:58.361Z,100316.81
2022-08-08T10:40:06.763Z,100315.78
2022-08-08T10:41:17.237Z,100327.28
2022-08-08T10:42:27.376Z,100307.84
2022-08-08T10:43:43.110Z,100308.63
2022-08-08T10:44:45.760Z,100291.41
2022-08-08T10:45:54.996Z,100332.31
2022-08-08T10:47:08.042Z,100311.31
2022-08-08T10:48:12.533Z,100259.59
2022-08-08T10:50:00.695Z,100320.72
2022-08-08T10:50:42.600Z,100314.56
2022-08-08T10:51:51.055Z,100330.72
2022-08-08T10:53:01.540Z,100316.22
2022-08-08T10:54:03.448Z,100277.75
2022-08-08T10:55:07.024Z,100272.75
2022-08-08T10:56:10.429Z,100318.59
2022-08-08T10:57:45.124Z,100311.06
2022-08-08T10:59:00.090Z,100304.81
2022-08-08T11:00:01.791Z,100306.19
2022-08-08T11:01:12.587Z,100323.94
2022-08-08T11:02:15.084Z,100298.34
2022-08-08T11:03:18.731Z,100293.38
2022-08-08T11:04:53.179Z,100322.03
2022-08-08T11:06:00.657Z,100312.13
2022-08-08T11:07:02.718Z,100306.72
2022-08-08T11:08:30.639Z,100289.44
2022-08-08T11:09:26.420Z,100304.78
2022-08-08T11:10:34.252Z,100292.91
2022-08-08T11:12:05.477Z,100295.16
2022-08-08T11:14:29.958Z,100279.75
2022-08-08T11:15:31.648Z,100313.66
2022-08-08T11:16:35.437Z,100274.19
2022-08-08T11:18:00.363Z,100280.75
2022-08-08T11:19:02.276Z,100282.00
2022-08-08T11:20:10.953Z,100268.06
2022-08-08T11:21:19.498Z,100293.28
2022-08-08T11:22:30.015Z,100281.94
2022-08-08T11:23:36.114Z,100286.38
2022-08-08T11:24:38.461Z,100298.91
2022-08-08T11:25:53.315Z,100256.22
2022-08-08T11:27:10.336Z,100287.66
2022-08-08T11:28:30.439Z,100273.34
2022-08-08T11:29:50.934Z,100247.63
2022-08-08T11:31:03.911Z,100272.50
2022-08-08T11:32:07.749Z,100296.97
2022-08-08T11:33:12.377Z,100284.53
2022-08-08T11:34:25.694Z,100286.38
2022-08-08T11:35:42.706Z,100219.44
2022-08-08T11:36:45.975Z,100278.38
2022-08-08T11:38:35.632Z,100250.53
2022-08-08T11:39:20.040Z,100288.59
2022-08-08T11:40:25.982Z,100251.66
2022-08-08T11:41:33.569Z,100276.31
2022-08-08T11:42:37.228Z,100283.25
2022-08-08T11:43:42.225Z,100273.91
2022-08-08T11:44:45.926Z,100292.34
2022-08-08T11:46:09.753Z,100293.38
2022-08-08T11:47:12.999Z,100215.50
2022-08-08T11:48:20.814Z,100272.63
2022-08-08T11:49:26.052Z,100240.09
2022-08-08T11:50:30.620Z,100277.81
2022-08-08T11:51:39.804Z,100279.44
2022-08-08T11:52:47.210Z,100223.84
2022-08-08T11:53:55.093Z,100268.06
2022-08-08T11:55:00.484Z,100261.22
2022-08-08T11:56:02.824Z,100281.81
2022-08-08T11:57:14.196Z,100238.81
2022-08-08T11:58:19.476Z,100287.88
2022-08-08T12:00:00.650Z,100271.44
2022-08-08T12:00:56.379Z,100261.69
2022-08-08T12:02:31.230Z,100279.44
2022-08-08T12:03:36.351Z,100283.31
2022-08-08T12:04:39.057Z,100269.22
2022-08-08T12:05:41.878Z,100279.28
2022-08-08T12:06:44.893Z,100223.56
2022-08-08T12:07:52.834Z,100220.91
2022-08-08T12:09:05.976Z,100294.03
2022-08-08T12:10:15.136Z,100252.84
2022-08-08T12:11:26.887Z,100258.34
2022-08-08T12:12:35.464Z,100245.88
2022-08-08T12:14:02.742Z,100278.53
2022-08-08T12:15:03.694Z,100272.81
2022-08-08T12:16:16.327Z,100275.84
2022-08-08T12:17:17.925Z,100260.00
2022-08-08T12:18:27.597Z,100236.88
2022-08-08T12:19:31.513Z,100215.31
2022-08-08T12:21:00.293Z,100262.06
2022-08-08T12:22:09.288Z,100266.59
2022-08-08T12:23:30.636Z,100212.72
2022-08-08T12:24:54.182Z,100279.44
2022-08-08T12:26:17.085Z,100259.19
2022-08-08T12:27:45.488Z,100257.19
2022-08-08T12:28:57.142Z,100264.16
2022-08-08T12:30:02.220Z,100285.47
2022-08-08T12:31:08.667Z,100244.91
2022-08-08T12:32:17.332Z,100255.84
2022-08-08T12:33:37.524Z,100239.56
2022-08-08T12:34:50.486Z,100263.88
2022-08-08T12:35:54.567Z,100261.19
2022-08-08T12:37:05.265Z,100270.28
2022-08-08T12:38:17.878Z,100255.19
2022-08-08T12:39:58.186Z,100246.53
2022-08-08T12:40:56.764Z,100260.94
2022-08-08T12:42:01.936Z,100259.63
2022-08-08T12:43:06.796Z,100262.72
2022-08-08T12:44:14.594Z,100271.69
2022-08-08T12:45:59.275Z,100266.34
2022-08-08T12:47:08.212Z,100249.22
2022-08-08T12:48:37.310Z,100271.41
2022-08-08T12:49:45.264Z,100262.16
2022-08-08T12:50:49.980Z,100261.41
2022-08-08T12:51:58.407Z,100262.16
2022-08-08T12:53:02.292Z,100229.59
2022-08-08T12:54:24.206Z,100262.94
2022-08-08T12:55:29.235Z,100218.31
2022-08-08T12:56:49.864Z,100231.88
2022-08-08T12:57:56.895Z,100249.59
2022-08-08T12:58:59.256Z,100218.34
2022-08-08T13:00:04.380Z,100260.13
2022-08-08T13:01:11.131Z,100248.75
2022-08-08T13:02:29.284Z,100251.63
2022-08-08T13:03:34.169Z,100229.44
2022-08-08T13:04:36.399Z,100254.63
2022-08-08T13:06:02.803Z,100231.09
2022-08-08T13:07:05.286Z,100255.72
2022-08-08T13:08:17.890Z,100219.34
2022-08-08T13:10:00.607Z,100254.06
2022-08-08T13:11:02.588Z,100266.16
2022-08-08T13:12:27.941Z,100248.22
2022-08-08T13:13:35.340Z,100260.41
2022-08-08T13:14:53.505Z,100246.00
2022-08-08T13:15:56.221Z,100224.25
2022-08-08T13:16:59.328Z,100264.69
2022-08-08T13:18:11.659Z,100280.75
2022-08-08T13:19:18.109Z,100226.38
2022-08-08T13:20:24.124Z,100224.31
2022-08-08T13:21:48.610Z,100239.97
2022-08-08T13:23:27.023Z,100259.56
2022-08-08T13:24:18.809Z,100235.41
2022-08-08T13:25:36.757Z,100250.72
2022-08-08T13:26:38.677Z,100248.94
2022-08-08T13:27:40.415Z,100244.47
2022-08-08T13:28:42.836Z,100214.97
2022-08-08T13:30:06.643Z,100251.78
2022-08-08T13:31:12.390Z,100241.97
2022-08-08T13:32:20.902Z,100270.06
2022-08-08T13:33:25.839Z,100261.13
2022-08-08T13:34:33.297Z,100208.88
2022-08-08T13:35:43.022Z,100209.88
2022-08-08T13:36:46.712Z,100230.81
2022-08-08T13:38:06.772Z,100239.13
2022-08-08T13:39:09.638Z,100242.34
2022-08-08T13:40:18.054Z,100237.50
2022-08-08T13:41:37.881Z,100232.66
2022-08-08T13:42:46.575Z,100244.03
2022-08-08T13:43:49.837Z,100256.19
2022-08-08T13:45:00.451Z,100251.97
2022-08-08T13:46:26.995Z,100214.25
2022-08-08T13:47:31.552Z,100239.69
2022-08-08T13:48:43.933Z,100246.81
2022-08-08T13:50:34.685Z,100254.44
2022-08-08T13:51:33.790Z,100229.94
2022-08-08T13:52:48.925Z,100241.09
2022-08-08T13:54:02.036Z,100220.28
2022-08-08T13:55:06.540Z,100215.94
2022-08-08T13:56:11.468Z,100215.19
2022-08-08T13:57:15.360Z,100236.09
2022-08-08T13:58:20.418Z,100216.34
2022-08-08T13:59:32.682Z,100232.22
2022-08-08T14:00:42.437Z,100237.06
2022-08-08T14:01:57.817Z,100232.25
2022-08-08T14:03:07.638Z,100219.59
2022-08-08T14:04:25.986Z,100202.84
2022-08-08T14:05:34.457Z,100234.50
2022-08-08T14:06:45.439Z,100209.44
2022-08-08T14:07:49.718Z,100216.28
2022-08-08T14:08:56.906Z,100214.31
2022-08-08T14:10:11.897Z,100228.03
2022-08-08T14:11:19.638Z,100228.34
2022-08-08T14:12:29.005Z,100242.19
2022-08-08T14:13:33.895Z,100216.28
2022-08-08T14:14:39.887Z,100216.59
2022-08-08T14:15:46.407Z,100146.81
2022-08-08T14:16:52.545Z,100232.91